Weather at Coleman A. Young Municipal Airport

Public forecast

Using degrees Fahrenheit for public forecast. Weather courtesy of forecast.io.

Current aviation weather report (METAR) for Coleman A. Young Municipal Airport

Retrieved 2020/10/27 07:53 UTC (57 minutes ago):

KDET 270753Z 33003KT 10SM OVC110 05/01 A3028 RMK AO2 SLP257 T00500006

Aviation forecast (TAF) for Coleman A. Young Municipal Airport

Retrieved 2020/10/27 06:22 UTC (2 hours ago):

TAF KDET 270520Z 2706/2806 31005KT P6SM OVC090 FM271400 26005KT P6SM SCT025 BKN040 OVC060 FM271700 25005KT P6SM BKN025 OVC040 FM280100 24004KT P6SM BKN035